createdAt,value
2023-04-27T00:01:13.584Z,15.65
2023-04-27T00:04:16.892Z,15.64
2023-04-27T00:07:19.451Z,15.47
2023-04-27T00:10:21.803Z,15.48
2023-04-27T00:13:24.143Z,15.50
2023-04-27T00:16:26.752Z,15.55
2023-04-27T00:19:30.552Z,15.59
2023-04-27T00:22:32.963Z,15.43
2023-04-27T00:25:35.327Z,15.52
2023-04-27T00:28:37.696Z,15.54
2023-04-27T00:31:40.091Z,15.54
2023-04-27T00:34:42.513Z,15.46
2023-04-27T00:37:44.913Z,15.53
2023-04-27T00:40:47.242Z,15.44
2023-04-27T00:43:50.052Z,15.35
2023-04-27T00:46:53.704Z,15.42
2023-04-27T00:49:56.072Z,15.46
2023-04-27T00:53:01.594Z,15.36
2023-04-27T00:56:05.686Z,15.44
2023-04-27T00:59:08.156Z,15.44
2023-04-27T01:02:12.294Z,15.45
2023-04-27T01:05:14.911Z,15.42
2023-04-27T01:08:17.286Z,15.26
2023-04-27T01:11:19.644Z,15.40
2023-04-27T01:14:22.045Z,15.39
2023-04-27T01:17:27.227Z,15.32
2023-04-27T01:20:30.526Z,15.36
2023-04-27T01:23:33.026Z,15.32
2023-04-27T01:26:35.667Z,15.31
2023-04-27T01:29:38.008Z,15.25
2023-04-27T01:32:41.020Z,15.31
2023-04-27T01:35:43.499Z,15.32
2023-04-27T01:38:46.057Z,15.25
2023-04-27T01:41:48.709Z,15.21
2023-04-27T01:44:51.022Z,15.25
2023-04-27T01:47:53.944Z,15.19
2023-04-27T01:50:56.448Z,15.16
2023-04-27T01:53:58.983Z,15.20
2023-04-27T01:57:02.014Z,15.18
2023-04-27T02:00:07.905Z,15.21
2023-04-27T02:03:25.346Z,15.09
2023-04-27T02:06:27.891Z,15.11
2023-04-27T02:09:30.241Z,15.14
2023-04-27T02:12:32.570Z,15.07
2023-04-27T02:15:35.686Z,15.15
2023-04-27T02:18:38.639Z,15.11
2023-04-27T02:21:41.150Z,15.08
2023-04-27T02:24:43.463Z,15.06
2023-04-27T02:27:45.800Z,15.06
2023-04-27T02:30:49.653Z,15.11
2023-04-27T02:33:52.017Z,15.03
2023-04-27T02:36:54.470Z,15.04
2023-04-27T02:39:56.846Z,15.07
2023-04-27T02:42:59.230Z,15.02
2023-04-27T02:46:04.802Z,15.05
2023-04-27T02:49:07.221Z,14.97
2023-04-27T02:52:09.733Z,14.93
2023-04-27T02:55:12.121Z,15.03
2023-04-27T02:58:15.006Z,14.98
2023-04-27T03:01:17.515Z,14.89
2023-04-27T03:04:20.185Z,14.98
2023-04-27T03:07:24.152Z,14.97
2023-04-27T03:10:26.568Z,14.98
2023-04-27T03:13:28.959Z,14.95
2023-04-27T03:16:35.062Z,14.92
2023-04-27T03:19:37.444Z,14.95
2023-04-27T03:22:39.816Z,14.84
2023-04-27T03:25:42.151Z,14.83
2023-04-27T03:28:44.724Z,14.93
2023-04-27T03:31:47.037Z,14.92
2023-04-27T03:34:49.478Z,14.88
2023-04-27T03:37:51.798Z,14.89
2023-04-27T03:40:54.715Z,14.85
2023-04-27T03:43:57.043Z,14.79
2023-04-27T03:46:59.544Z,14.89
2023-04-27T03:50:01.886Z,14.84
2023-04-27T03:53:04.448Z,14.87
2023-04-27T03:56:06.993Z,14.87
2023-04-27T03:59:09.388Z,14.83
2023-04-27T04:02:12.907Z,14.90
2023-04-27T04:05:15.491Z,15.00
2023-04-27T04:08:17.909Z,15.03
2023-04-27T04:11:20.434Z,15.31
2023-04-27T04:14:22.966Z,15.48
2023-04-27T04:17:25.905Z,15.68
2023-04-27T04:20:28.491Z,16.06
2023-04-27T04:23:30.869Z,16.31
2023-04-27T04:26:33.690Z,16.58
2023-04-27T04:29:36.132Z,16.90
2023-04-27T04:32:38.491Z,17.16
2023-04-27T04:35:41.872Z,17.42
2023-04-27T04:38:44.425Z,17.77
2023-04-27T04:41:46.994Z,18.08
2023-04-27T04:44:49.678Z,18.38
2023-04-27T04:47:54.494Z,18.69
2023-04-27T04:50:57.394Z,18.87
2023-04-27T04:54:01.692Z,19.03
2023-04-27T04:57:05.541Z,19.00
2023-04-27T05:00:13.157Z,19.09
2023-04-27T05:03:15.870Z,19.08
2023-04-27T05:06:18.315Z,19.09
2023-04-27T05:09:20.688Z,19.03
2023-04-27T05:12:23.242Z,18.96
2023-04-27T05:15:25.659Z,18.98
2023-04-27T05:18:27.965Z,18.98
2023-04-27T05:21:30.382Z,18.96
2023-04-27T05:24:33.394Z,18.82
2023-04-27T05:27:35.785Z,18.88
2023-04-27T05:30:38.200Z,18.87
2023-04-27T05:33:40.590Z,18.83
2023-04-27T05:36:42.953Z,18.75
2023-04-27T05:39:45.490Z,18.84
2023-04-27T05:42:49.153Z,18.76
2023-04-27T05:45:52.036Z,18.74
2023-04-27T05:48:54.349Z,18.73
2023-04-27T05:51:59.049Z,18.59
2023-04-27T05:55:01.465Z,18.72
2023-04-27T05:58:07.985Z,18.69
2023-04-27T06:01:11.604Z,18.41
2023-04-27T06:04:15.460Z,18.36
2023-04-27T06:07:25.243Z,18.73
2023-04-27T06:10:32.481Z,18.84
2023-04-27T06:13:35.273Z,18.73
2023-04-27T06:16:40.620Z,18.77
2023-04-27T06:19:43.011Z,18.65
2023-04-27T06:22:46.933Z,18.58
2023-04-27T06:25:49.701Z,18.85
2023-04-27T06:28:52.496Z,19.00
2023-04-27T06:31:55.552Z,19.11
2023-04-27T06:34:57.961Z,19.45
2023-04-27T06:38:00.899Z,19.69
2023-04-27T06:41:03.426Z,19.79
2023-04-27T06:44:06.047Z,19.92
2023-04-27T06:47:08.768Z,20.17
2023-04-27T06:50:11.996Z,20.41
2023-04-27T06:53:14.604Z,20.47
2023-04-27T06:56:17.277Z,20.69
2023-04-27T06:59:19.713Z,20.78
2023-04-27T07:02:24.977Z,20.81
2023-04-27T07:05:28.018Z,20.93
2023-04-27T07:08:30.635Z,20.71
2023-04-27T07:11:33.245Z,20.85
2023-04-27T07:19:16.883Z,20.99
2023-04-27T07:22:20.104Z,21.05
2023-04-27T07:29:41.058Z,20.89
2023-04-27T07:32:44.537Z,20.91
2023-04-27T07:35:47.142Z,21.03
2023-04-27T07:38:49.971Z,20.77
2023-04-27T07:44:57.331Z,20.99
2023-04-27T07:48:00.576Z,21.28
2023-04-27T07:51:03.004Z,21.45
2023-04-27T07:54:06.611Z,21.51
2023-04-27T07:57:10.492Z,21.48
2023-04-27T08:00:13.349Z,21.52
2023-04-27T08:03:17.007Z,21.57
2023-04-27T08:06:21.045Z,21.54
2023-04-27T08:09:29.941Z,21.69
2023-04-27T08:12:36.589Z,21.90
2023-04-27T08:15:48.100Z,22.04
2023-04-27T08:18:52.702Z,21.97
2023-04-27T08:22:10.009Z,22.11
2023-04-27T08:25:16.292Z,22.14
2023-04-27T08:28:20.677Z,22.20
2023-04-27T08:31:23.574Z,22.25
2023-04-27T08:34:31.606Z,22.21
2023-04-27T08:37:37.851Z,22.30
2023-04-27T08:40:43.981Z,22.17
2023-04-27T08:43:46.462Z,22.15
2023-04-27T08:46:49.485Z,21.94
2023-04-27T08:49:59.562Z,21.50
2023-04-27T08:53:02.376Z,21.42
2023-04-27T08:56:05.153Z,21.27
2023-04-27T08:59:15.243Z,21.22
2023-04-27T09:02:22.329Z,21.03
2023-04-27T09:05:25.039Z,20.94
2023-04-27T09:08:27.678Z,20.79
2023-04-27T09:11:34.142Z,20.91
2023-04-27T09:14:36.982Z,20.71
2023-04-27T09:17:39.740Z,20.63
2023-04-27T09:20:52.567Z,20.62
2023-04-27T09:23:55.985Z,20.62
2023-04-27T09:27:00.163Z,20.55
2023-04-27T09:30:15.343Z,20.39
2023-04-27T09:33:26.592Z,20.25
2023-04-27T09:36:34.124Z,20.35
2023-04-27T09:39:38.417Z,20.30
2023-04-27T09:42:46.237Z,20.15
2023-04-27T09:45:50.002Z,20.21
2023-04-27T09:48:55.054Z,20.18
2023-04-27T09:51:58.836Z,20.17
2023-04-27T09:55:02.500Z,19.98
2023-04-27T09:58:40.717Z,20.21
2023-04-27T10:01:50.521Z,20.18
2023-04-27T10:05:12.083Z,20.16
2023-04-27T10:08:15.228Z,19.99
2023-04-27T10:11:20.975Z,20.03
2023-04-27T10:14:24.658Z,19.94
2023-04-27T10:17:32.254Z,19.90
2023-04-27T10:20:37.773Z,19.88
2023-04-27T10:23:51.331Z,19.80
2023-04-27T10:26:53.767Z,19.90
2023-04-27T10:31:30.667Z,19.80
2023-04-27T10:34:35.699Z,19.83
2023-04-27T10:37:42.525Z,19.78
2023-04-27T10:41:01.622Z,19.82
2023-04-27T10:44:28.630Z,19.77
2023-04-27T10:47:42.358Z,19.81
2023-04-27T10:50:45.006Z,19.79
2023-04-27T10:53:52.618Z,19.71
2023-04-27T10:57:02.132Z,19.76
2023-04-27T11:00:05.791Z,19.72
2023-04-27T11:03:12.645Z,19.69
2023-04-27T11:06:15.288Z,19.66
2023-04-27T11:09:27.711Z,19.63
2023-04-27T11:12:32.475Z,19.54
2023-04-27T11:15:58.112Z,19.58
2023-04-27T11:19:06.985Z,19.28
2023-04-27T11:22:09.570Z,19.40
2023-04-27T11:25:12.344Z,19.51
2023-04-27T11:28:23.037Z,19.56
2023-04-27T11:31:27.015Z,19.54
2023-04-27T11:34:34.377Z,19.36
2023-04-27T11:37:37.455Z,19.57
2023-04-27T11:40:41.998Z,19.76
2023-04-27T11:43:49.580Z,19.98
2023-04-27T11:46:53.301Z,20.20
2023-04-27T11:49:57.510Z,20.46
2023-04-27T11:53:01.344Z,20.53
2023-04-27T11:56:06.270Z,20.72
2023-04-27T11:59:23.277Z,20.78
2023-04-27T12:02:27.003Z,20.85
2023-04-27T12:05:29.570Z,20.96
2023-04-27T12:08:32.023Z,21.09
2023-04-27T12:11:34.487Z,21.14
2023-04-27T12:14:37.045Z,21.20
2023-04-27T12:17:39.996Z,21.25
2023-04-27T12:20:42.400Z,21.25
2023-04-27T12:23:44.899Z,21.22
2023-04-27T12:26:48.404Z,21.23
2023-04-27T12:29:50.854Z,21.25
2023-04-27T12:32:53.352Z,21.31
2023-04-27T12:35:56.216Z,21.29
2023-04-27T12:39:00.526Z,21.37
2023-04-27T12:42:03.718Z,21.38
2023-04-27T12:45:08.188Z,21.44
2023-04-27T12:48:22.729Z,21.44
2023-04-27T12:51:25.942Z,21.46
2023-04-27T12:54:28.346Z,21.43
2023-04-27T12:57:30.731Z,21.16
2023-04-27T13:00:34.322Z,21.07
2023-04-27T13:03:37.018Z,20.75
2023-04-27T13:06:39.771Z,20.59
2023-04-27T13:09:42.188Z,20.46
2023-04-27T13:12:44.591Z,20.34
2023-04-27T13:15:47.065Z,20.18
2023-04-27T13:18:52.033Z,20.19
2023-04-27T13:21:54.609Z,20.09
2023-04-27T13:24:56.954Z,20.02
2023-04-27T13:27:59.361Z,20.08
2023-04-27T13:31:02.187Z,19.98
2023-04-27T13:34:04.894Z,19.99
2023-04-27T13:37:07.500Z,19.77
2023-04-27T13:40:13.706Z,19.73
2023-04-27T13:43:16.208Z,19.67
2023-04-27T13:46:18.630Z,19.59
2023-04-27T13:49:21.212Z,19.57
2023-04-27T13:52:23.670Z,19.55
2023-04-27T13:55:26.074Z,19.49
2023-04-27T13:58:29.248Z,19.47
2023-04-27T14:01:31.770Z,19.45
2023-04-27T14:04:34.183Z,19.55
2023-04-27T14:07:36.653Z,19.71
2023-04-27T14:10:39.384Z,19.75
2023-04-27T14:13:41.752Z,20.05
2023-04-27T14:16:44.372Z,20.15
2023-04-27T14:19:46.869Z,20.48
2023-04-27T14:22:49.222Z,20.69
2023-04-27T14:25:51.585Z,20.90
2023-04-27T14:28:58.027Z,21.07
2023-04-27T14:32:01.374Z,21.16
2023-04-27T14:35:04.058Z,21.06
2023-04-27T14:38:06.922Z,21.21
2023-04-27T14:41:09.376Z,21.24
2023-04-27T14:44:11.876Z,21.21
2023-04-27T14:47:14.358Z,21.16
2023-04-27T14:50:16.973Z,21.12
2023-04-27T14:53:19.407Z,21.05
2023-04-27T14:56:23.238Z,21.02
2023-04-27T14:59:25.597Z,20.92
2023-04-27T15:02:28.021Z,20.92
2023-04-27T15:05:30.412Z,20.81
2023-04-27T15:08:34.262Z,20.76
2023-04-27T15:11:36.987Z,20.77
2023-04-27T15:14:39.396Z,20.69
2023-04-27T15:17:41.854Z,20.68
2023-04-27T15:20:44.725Z,20.60
2023-04-27T15:23:47.151Z,20.50
2023-04-27T15:26:49.507Z,20.51
2023-04-27T15:29:54.397Z,20.45
2023-04-27T15:32:56.937Z,20.30
2023-04-27T15:35:59.538Z,20.33
2023-04-27T15:39:01.902Z,20.27
2023-04-27T15:42:05.192Z,20.22
2023-04-27T15:45:09.856Z,20.16
2023-04-27T15:48:12.555Z,20.12
2023-04-27T15:51:15.163Z,20.03
2023-04-27T15:54:18.181Z,19.99
2023-04-27T15:57:20.739Z,19.98
2023-04-27T16:00:23.160Z,19.86
2023-04-27T16:03:26.222Z,19.87
2023-04-27T16:06:35.305Z,19.77
2023-04-27T16:09:37.765Z,19.73
2023-04-27T16:12:40.134Z,19.71
2023-04-27T16:15:42.509Z,19.62
2023-04-27T16:18:44.918Z,19.54
2023-04-27T16:21:47.572Z,19.53
2023-04-27T16:24:50.574Z,19.47
2023-04-27T16:27:52.923Z,19.41
2023-04-27T16:30:55.302Z,19.36
2023-04-27T16:33:57.727Z,19.32
2023-04-27T16:37:00.116Z,19.30
2023-04-27T16:40:06.861Z,19.30
2023-04-27T16:43:09.641Z,19.27
2023-04-27T16:46:13.347Z,19.20
2023-04-27T16:49:16.304Z,19.15
2023-04-27T16:52:19.998Z,19.02
2023-04-27T16:55:22.417Z,18.99
2023-04-27T16:58:24.801Z,18.99
2023-04-27T17:01:29.772Z,18.89
2023-04-27T17:04:35.389Z,18.82
2023-04-27T17:07:37.882Z,18.76
2023-04-27T17:10:41.562Z,18.68
2023-04-27T17:13:43.939Z,18.67
2023-04-27T17:16:46.405Z,18.59
2023-04-27T17:19:48.746Z,18.67
2023-04-27T17:22:51.181Z,18.83
2023-04-27T17:25:53.562Z,19.05
2023-04-27T17:28:59.915Z,19.26
2023-04-27T17:32:02.298Z,19.44
2023-04-27T17:35:05.323Z,19.69
2023-04-27T17:38:07.688Z,20.02
2023-04-27T17:41:10.072Z,20.24
2023-04-27T17:44:12.868Z,20.41
2023-04-27T17:47:15.349Z,20.50
2023-04-27T17:50:17.717Z,20.58
2023-04-27T17:53:20.222Z,20.56
2023-04-27T17:56:22.618Z,20.55
2023-04-27T17:59:25.020Z,20.60
2023-04-27T18:02:27.538Z,20.55
2023-04-27T18:05:30.163Z,20.52
2023-04-27T18:08:32.637Z,20.47
2023-04-27T18:11:36.309Z,20.45
2023-04-27T18:14:38.762Z,20.35
2023-04-27T18:17:41.249Z,20.30
2023-04-27T18:20:44.986Z,20.30
2023-04-27T18:23:47.889Z,20.23
2023-04-27T18:26:50.838Z,20.18
2023-04-27T18:29:53.293Z,20.10
2023-04-27T18:32:55.643Z,19.94
2023-04-27T18:35:58.209Z,19.94
2023-04-27T18:39:00.918Z,19.82
2023-04-27T18:42:03.311Z,19.76
2023-04-27T18:45:06.338Z,19.71
2023-04-27T18:48:08.904Z,19.60
2023-04-27T18:51:11.276Z,19.57
2023-04-27T18:54:13.681Z,19.42
2023-04-27T18:57:16.069Z,19.27
2023-04-27T19:00:18.559Z,19.28
2023-04-27T19:03:20.997Z,19.14
2023-04-27T19:06:23.659Z,19.11
2023-04-27T19:09:26.054Z,18.99
2023-04-27T19:12:28.413Z,18.97
2023-04-27T19:15:31.050Z,18.92
2023-04-27T19:18:33.569Z,18.85
2023-04-27T19:21:36.251Z,18.86
2023-04-27T19:24:38.744Z,18.78
2023-04-27T19:27:41.147Z,18.79
2023-04-27T19:30:43.605Z,18.76
2023-04-27T19:33:54.656Z,18.69
2023-04-27T19:36:57.449Z,18.55
2023-04-27T19:40:00.428Z,18.54
2023-04-27T19:43:03.881Z,18.46
2023-04-27T19:46:06.544Z,18.39
2023-04-27T19:49:08.990Z,18.32
2023-04-27T19:52:11.393Z,18.18
2023-04-27T19:55:14.859Z,18.14
2023-04-27T19:58:17.496Z,18.12
2023-04-27T20:01:21.991Z,18.04
2023-04-27T20:04:25.104Z,18.02
2023-04-27T20:07:27.718Z,17.96
2023-04-27T20:10:30.048Z,17.91
2023-04-27T20:13:32.418Z,17.91
2023-04-27T20:16:34.806Z,17.85
2023-04-27T20:19:37.190Z,17.83
2023-04-27T20:22:39.549Z,17.79
2023-04-27T20:25:42.202Z,17.75
2023-04-27T20:28:44.527Z,17.64
2023-04-27T20:31:48.563Z,17.70
2023-04-27T20:34:51.073Z,17.67
2023-04-27T20:37:54.290Z,17.60
2023-04-27T20:40:58.520Z,17.63
2023-04-27T20:44:02.032Z,17.60
2023-04-27T20:47:05.298Z,17.55
2023-04-27T20:50:08.033Z,17.51
2023-04-27T20:53:10.772Z,17.44
2023-04-27T20:56:13.166Z,17.44
2023-04-27T20:59:15.529Z,17.40
2023-04-27T21:02:18.002Z,17.32
2023-04-27T21:05:20.392Z,17.36
2023-04-27T21:08:22.807Z,17.29
2023-04-27T21:11:25.200Z,17.31
2023-04-27T21:14:27.509Z,17.26
2023-04-27T21:17:29.913Z,17.21
2023-04-27T21:20:33.070Z,17.21
2023-04-27T21:23:35.849Z,17.20
2023-04-27T21:26:38.413Z,17.11
2023-04-27T21:29:40.828Z,17.09
2023-04-27T21:32:43.479Z,17.06
2023-04-27T21:35:46.033Z,17.08
2023-04-27T21:38:48.369Z,17.10
2023-04-27T21:41:50.798Z,17.04
2023-04-27T21:44:53.125Z,16.99
2023-04-27T21:47:55.504Z,17.02
2023-04-27T21:50:57.886Z,17.01
2023-04-27T21:54:01.430Z,16.93
2023-04-27T21:57:04.236Z,16.96
2023-04-27T22:00:13.873Z,16.88
2023-04-27T22:03:23.014Z,16.83
2023-04-27T22:06:25.744Z,16.92
2023-04-27T22:09:28.705Z,16.90
2023-04-27T22:12:31.092Z,16.88
2023-04-27T22:15:33.888Z,16.86
2023-04-27T22:18:36.648Z,16.87
2023-04-27T22:21:38.986Z,16.76
2023-04-27T22:24:41.304Z,16.82
2023-04-27T22:27:45.365Z,16.79
2023-04-27T22:30:47.928Z,16.73
2023-04-27T22:33:50.525Z,16.74
2023-04-27T22:36:53.281Z,16.71
2023-04-27T22:39:56.101Z,16.69
2023-04-27T22:42:58.442Z,16.67
2023-04-27T22:46:00.822Z,16.66
2023-04-27T22:49:03.267Z,16.64
2023-04-27T22:52:05.632Z,16.61
2023-04-27T22:55:08.563Z,16.60
2023-04-27T22:58:11.103Z,16.53
2023-04-27T23:01:13.490Z,16.52
2023-04-27T23:04:16.872Z,16.43
2023-04-27T23:07:19.451Z,16.51
2023-04-27T23:10:22.700Z,16.42
2023-04-27T23:13:27.897Z,16.46
2023-04-27T23:16:30.809Z,16.49
2023-04-27T23:19:33.685Z,16.45
2023-04-27T23:22:37.151Z,16.44
2023-04-27T23:25:39.462Z,16.41
2023-04-27T23:28:42.446Z,16.40
2023-04-27T23:31:44.782Z,16.33
2023-04-27T23:34:47.151Z,16.33
2023-04-27T23:37:49.533Z,16.38
2023-04-27T23:40:52.154Z,16.37
2023-04-27T23:43:54.488Z,16.29
2023-04-27T23:46:56.954Z,16.32
2023-04-27T23:49:59.920Z,16.27
2023-04-27T23:53:03.387Z,16.24
2023-04-27T23:56:06.137Z,16.26
2023-04-27T23:59:08.452Z,16.25
